Rickenbacker International Airport
KLCK : now visible

Airfield :











YOU CAN JOIN US ON...

 
LOGIN :

Register | Disclaimer

   EN    FR    IT 

 









Legend :    VFR   Marginal VFR   IFR   Intensive IFR   Very Intensive IFR
Visi :
Ceiling :
>= 8 km
>= 3000ft
5 to 8 km
1000 to 3000 ft
1500m to 5 km
500 to 1000 ft
800 to 1500m
200 to 500 ft
< 800m
< 200 ft
Symbols :   Thunderstorms  Fog  Heavy snow  Heavy precipitations  Wind > 20 kt






- Airport Elevation : 744 ft


KLCK - Rickenbacker International

CURRENT METAR :
  • 071555Z AUTO 31012G16KT 10SM SCT026 BKN049 OVC065 12/06 A3021 RMK AO2 T01230056

EXPIRED METARs :
  • 071455Z AUTO 33012KT 10SM SCT020 BKN025 OVC049 12/07 A3020 RMK AO2 T01150066
  • 071355Z AUTO 34008G14KT 10SM BKN018 OVC045 12/09 A3017 RMK AO2 T01230085

TAF KLCK
Valid from the 07 at 12:00 until the 08 at 12:00 UTC


071124Z 0712/0812 34012G18KT P6SM SCT015 BKN025
TEMPO 0712/0715 BKN015
FM071700 34010G16KT P6SM BKN035
FM072300 35008KT P6SM SCT050
FM080800 34004KT P6SM FEW050
KZID FIR / North America



MET'MAP, your aeronautical weather chart ! - Copyright ORBIFLY December 2007 - Disclaimer

ORBIFLY MET'MAP TEAM :

Programming & Development : Alexandra Zaïnal
Original concept : Baudouin d'Aumeries
Technical & hardware support : Manuel Goepfert
Assistance : Marc-Olivier Méhu




SOURCES & CREDITS :

   NOAA       Earth
Advisory